• Join FlightAware (Why Join?)
  • Login
  • US Flag 
02:18AM EDT


 

Airport Tracker/Info


-or-


 

Live Flight TrackerFlight Track Log ✈ N7232C ✈ 30-Apr-2013 ✈ KORF - KHVN

Flight Track Log - Related Links

Times and Time Zones

All times are in EDT time to prevent confusion due to time zone crossing. See the N7232C flight status page for this flight to view local times or setup timezone preferences in your user account.

Time Position Orientation Groundspeed Altitude Reporting Facility
EDT Latitude Longitude Course Direction KTS MPH feet Rate Location/Type
12:16PM 36.8994 -76.1944 79° East 93 107 400  Level Washington Center
12:16PM 36.9014 -76.1814 79° East 88 101 700 480 Climbing Washington Center
12:17PM 36.9058 -76.1450 81° East 101 116 1,200 540 Climbing Washington Center
12:18PM 36.9100 -76.1114 81° East 99 114 1,800 480 Climbing Washington Center
12:19PM 36.9247 -76.0881 52° Northeast 92 106 2,200 480 Climbing Washington Center
12:20PM 36.9478 -76.0753 24° Northeast 93 107 2,800 540 Climbing Washington Center
12:21PM 36.9728 -76.0703 North 94 108 3,300 420 Climbing Washington Center
12:22PM 36.9981 -76.0625 14° North 94 108 3,700 300 Climbing Washington Center
12:23PM 37.0250 -76.0628 360° North 98 113 4,000 120 Climbing Washington Center
12:24PM 37.0564 -76.0603 North 102 117 4,000  Level Washington Center
12:25PM 37.0836 -76.0553 North 98 113 4,000  Level Washington Center
12:26PM 37.1128 -76.0556 360° North 99 114 4,000  Level Washington Center
12:27PM 37.1397 -76.0506 North 100 115 4,000  Level Washington Center
12:28PM 37.1692 -76.0453 North 100 115 4,000 -60 Level Washington Center
12:29PM 37.1942 -76.0428 North 98 113 3,900 120 Descending Washington Center
12:30PM 37.2192 -76.0353 13° North 93 107 4,300 420 Climbing Washington Center
12:31PM 37.2422 -76.0250 20° North 85 98 4,800 480 Climbing Washington Center
12:32PM 37.2672 -76.0172 14° North 85 98 5,300 540 Climbing Washington Center
12:33PM 37.2903 -76.0122 10° North 83 96 5,900 480 Climbing Washington Center
12:34PM 37.3111 -76.0044 17° North 83 96 6,300 420 Climbing Washington Center
12:35PM 37.3278 -75.9992 14° North 81 93 6,700 480 Climbing Washington Center
12:35PM 37.3361 -75.9967 13° North 80 92 6,900 240 Climbing Washington Center
12:36PM 37.3592 -75.9942 North 83 96 7,100  Climbing Washington Center
12:38PM 37.3883 -75.9839 16° North 109 125 7,000 -120 Descending Washington Center
12:38PM 37.4175 -75.9761 12° North 105 121 6,900  Descending Washington Center
12:40PM 37.4425 -75.9606 26° Northeast 98 113 7,000  Climbing Washington Center
12:40PM 37.4678 -75.9478 22° Northeast 99 114 6,900 -60 Descending Washington Center
12:42PM 37.4928 -75.9294 30° Northeast 100 115 6,900  Level Washington Center
12:43PM 37.5178 -75.9139 26° Northeast 99 114 6,900  Level Washington Center
12:44PM 37.5431 -75.8983 26° Northeast 98 113 6,900  Level Washington Center
12:45PM 37.5681 -75.8828 26° Northeast 97 112 6,900  Level Washington Center
12:46PM 37.5950 -75.8722 17° North 96 110 7,000  Climbing Washington Center
12:47PM 37.6181 -75.8619 19° North 97 112 7,000  Level Washington Center
12:48PM 37.6453 -75.8514 17° North 99 114 7,000  Level Washington Center
12:49PM 37.6725 -75.8411 17° North 99 114 7,000  Level Washington Center
12:50PM 37.6994 -75.8281 21° North 101 116 7,100  Climbing Washington Center
12:51PM 37.7267 -75.8175 17° North 99 114 7,100 -60 Level Washington Center
12:52PM 37.7517 -75.8044 22° Northeast 103 119 7,000 -60 Descending Washington Center
12:53PM 37.7789 -75.7942 17° North 101 116 7,000  Level Washington Center
12:54PM 37.8058 -75.7783 25° Northeast 102 117 7,000  Level Washington Center
12:55PM 37.8311 -75.7653 22° Northeast 99 114 7,100  Climbing Washington Center
12:56PM 37.8581 -75.7522 21° North 100 115 7,000 -60 Descending Washington Center
12:57PM 37.8831 -75.7392 22° Northeast 101 116 7,000  Level Washington Center
12:58PM 37.9083 -75.7261 22° Northeast 100 115 7,100  Climbing Washington Center
12:59PM 37.9375 -75.7128 20° North 103 119 7,100 -60 Level Washington Center
01:00PM 37.9625 -75.6997 22° Northeast 100 115 7,000 -60 Descending Washington Center
01:01PM 37.9894 -75.6892 17° North 102 117 7,000  Level Washington Center
01:02PM 38.0167 -75.6761 21° North 103 119 7,100  Climbing Washington Center
01:03PM 38.0439 -75.6603 25° Northeast 101 116 7,100  Level Washington Center
01:04PM 38.0708 -75.6472 21° North 101 116 7,100 -60 Level Washington Center
01:05PM 38.0958 -75.6367 18° North 100 115 7,000 -60 Descending Washington Center
01:06PM 38.1211 -75.6233 23° Northeast 102 117 7,000  Level Washington Center
01:07PM 38.1503 -75.6128 16° North 101 116 7,000  Level Washington Center
01:08PM 38.1772 -75.5997 21° North 102 117 7,000  Level Washington Center
01:09PM 38.2022 -75.5892 18° North 100 115 7,000  Level Washington Center
01:10PM 38.2272 -75.5758 23° Northeast 97 112 7,000  Level Washington Center
01:11PM 38.2544 -75.5628 21° North 98 113 7,000  Level Washington Center
01:12PM 38.2794 -75.5467 27° Northeast 100 115 7,000 -60 Level Washington Center
01:13PM 38.3067 -75.5308 25° Northeast 102 117 6,900 -60 Descending Washington Center
01:14PM 38.3336 -75.5203 17° North 99 114 6,900  Level Washington Center
01:15PM 38.3567 -75.5044 28° Northeast 99 114 6,900  Level Washington Center
01:16PM 38.3817 -75.4858 30° Northeast 100 115 7,000  Climbing Washington Center
01:18PM 38.4244 -75.4545 30° Northeast  Level FlightAware Approximate
01:25PM 38.6071 -75.3241 27° Northeast  Level FlightAware Approximate
01:26PM 38.6338 -75.3070 27° Northeast  Level FlightAware Approximate
01:27PM 38.6605 -75.2898 27° Northeast  Level FlightAware Approximate
01:28PM 38.6872 -75.2727 27° Northeast  Level FlightAware Approximate
01:29PM 38.7139 -75.2555 27° Northeast  Level FlightAware Approximate
01:30PM 38.7406 -75.2383 27° Northeast  Level FlightAware Approximate
01:31PM 38.7673 -75.2211 27° Northeast  Level FlightAware Approximate
01:32PM 38.7939 -75.2039 27° Northeast  Level FlightAware Approximate
01:33PM 38.8213 -75.1886 23° Northeast  Level FlightAware Approximate
01:34PM 38.8489 -75.1738 23° Northeast  Level FlightAware Approximate
01:35PM 38.8764 -75.1590 23° Northeast  Level FlightAware Approximate
01:36PM 38.9040 -75.1441 23° Northeast  Level FlightAware Approximate
01:37PM 38.9315 -75.1293 23° Northeast  Level FlightAware Approximate
01:37PM 38.9144 -75.1194 23° Northeast 108 124 7,000  Level Washington Center
01:38PM 38.9590 -75.1144 23° Northeast  Level FlightAware Approximate
01:39PM 38.9866 -75.0996 23° Northeast  Level FlightAware Approximate
01:39PM 38.9482 -75.0887 23° Northeast  Level Estimated
01:40PM 39.0141 -75.0847 23° Northeast  Level FlightAware Approximate
01:41PM 39.0389 -75.0637 23° Northeast  Level FlightAware Approximate
01:41PM 39.0142 -75.0386 36° Northeast 103 119 7,100  Level Washington Center
01:42PM 39.0664 -75.0489 23° Northeast  Level FlightAware Approximate
01:43PM 39.0940 -75.0341 23° Northeast  Level FlightAware Approximate
01:43PM 39.0534 -75.0239 16° North  Level FlightAware Approximate
01:45PM 39.1158 -74.9603 36° Northeast 108 124 7,000  Level Washington Center
01:46PM 39.1451 -74.9984 20° North  Level FlightAware Approximate
01:47PM 39.1691 -74.9754 36° Northeast  Level Estimated
01:47PM 39.1571 -74.9571 North  Level FlightAware Approximate
01:49PM 39.2133 -74.8711 36° Northeast 117 135 7,000  Level Washington Center
01:50PM 39.2229 -74.8661 36° Northeast  Level Estimated
01:51PM 39.2506 -74.8511 23° Northeast  Level FlightAware Approximate
01:53PM 39.3150 -74.7947 23° Northeast 110 127 7,000  Level Washington Center
01:54PM 39.2626 -74.9382 36° Northeast  Level FlightAware Approximate
01:55PM 39.2869 -74.9157 36° Northeast  Level FlightAware Approximate
01:55PM 39.3533 -74.7786 18° North  Level FlightAware Approximate
01:57PM 39.4164 -74.7186 198° South 103 119 7,000  Level Washington Center
01:58PM 39.4436 -74.7472 23° Northeast  Level FlightAware Approximate
01:59PM 39.4711 -74.7323 23° Northeast  Level FlightAware Approximate
01:59PM 39.4535 -74.7017 19° North  Level FlightAware Approximate
02:02PM 39.5521 -74.6946 18° North  Level FlightAware Approximate
02:03PM 39.5237 -74.7066 198° South  Level FlightAware Approximate
02:06PM 39.6208 -74.5391 34° Northeast  Level Estimated
02:07PM 39.6477 -74.5223 26° Northeast  Level FlightAware Approximate
02:08PM 39.6746 -74.5055 26° Northeast  Level FlightAware Approximate
02:09PM 39.7015 -74.4887 26° Northeast  Level FlightAware Approximate
02:10PM 39.7285 -74.4719 26° Northeast  Level FlightAware Approximate
02:11PM 39.7521 -74.4482 35° Northeast  Level Estimated
02:12PM 39.7776 -74.4279 31° Northeast  Level FlightAware Approximate
02:13PM 39.8031 -74.4076 31° Northeast  Level FlightAware Approximate
02:14PM 39.8285 -74.3873 31° Northeast  Level FlightAware Approximate
02:15PM 39.8540 -74.3670 32° Northeast  Level FlightAware Approximate
02:16PM 39.8795 -74.3466 32° Northeast  Level FlightAware Approximate
02:17PM 39.9049 -74.3262 32° Northeast  Level FlightAware Approximate
02:18PM 39.9304 -74.3059 32° Northeast  Level FlightAware Approximate
02:19PM 39.9537 -74.2816 37° Northeast  Level Estimated
02:20PM 39.9771 -74.2574 46° Northeast  Level Estimated
02:20PM 39.9833 -74.2833 30° Northeast 114 131 6,700  Level New York TRACON
02:21PM 40.0007 -74.2335 38° Northeast  Level FlightAware Approximate
02:21PM 40.0000 -74.2667 37° Northeast 111 128 7,100  Level New York TRACON
02:22PM 40.0243 -74.2097 38° Northeast  Level FlightAware Approximate
02:23PM 40.0477 -74.1853 30° Northeast  Level Estimated
02:23PM 40.0500 -74.2167 37° Northeast 110 127 7,100  Level New York TRACON
02:24PM 40.0667 -74.1833 57° Northeast 109 125 7,100  Level New York TRACON
02:25PM 40.1000 -74.1667 21° North 111 128 7,100  Level New York TRACON
02:26PM 40.1333 -74.1500 21° North 106 122 7,100  Level New York TRACON
02:27PM 40.1500 -74.1333 37° Northeast 109 125 7,100  Level New York TRACON
02:28PM 40.1667 -74.1000 57° Northeast 109 125 7,100  Level New York TRACON
02:29PM 40.2000 -74.0833 21° North 106 122 7,100  Level New York TRACON
02:30PM 40.2333 -74.0667 21° North 108 124 7,100  Level New York TRACON
02:31PM 40.2500 -74.0500 37° Northeast 110 127 7,100  Level New York TRACON
02:32PM 40.2833 -74.0333 21° North 107 123 7,100  Level New York TRACON
02:33PM 40.3000 -74.0167 37° Northeast 108 124 7,100  Level New York TRACON
02:34PM 40.3333 -74.0000 21° North 106 122 7,100 -60 Level New York TRACON
02:35PM 40.3500 -73.9833 37° Northeast 105 121 7,000  Descending New York TRACON
02:36PM 40.3833 -73.9667 21° North 105 121 7,100  Climbing New York TRACON
02:37PM 40.4000 -73.9500 37° Northeast 106 122 7,000 -60 Descending New York TRACON
02:38PM 40.4333 -73.9333 21° North 105 121 7,000 -60 Level New York TRACON
02:39PM 40.4667 -73.9000 37° Northeast 105 121 6,900  Descending New York TRACON
02:40PM 40.4833 -73.8833 37° Northeast 103 119 7,000  Climbing New York TRACON
02:41PM 40.5167 -73.8667 21° North 101 116 7,000  Level New York TRACON
02:42PM 40.5333 -73.8500 37° Northeast 101 116 7,000  Level New York TRACON
02:43PM 40.5500 -73.8167 57° Northeast 103 119 7,000  Level New York TRACON
02:44PM 40.5833 -73.8000 21° North 101 116 7,000  Level New York TRACON
02:45PM 40.6000 -73.7833 37° Northeast 95 109 7,000  Level New York TRACON
02:45PM 40.6333 -73.7667 21° North 88 101 7,000  Level New York TRACON
02:47PM 40.6333 -73.7667 21° North 101 116 7,000  Level New York TRACON
02:48PM 40.6833 -73.7167 37° Northeast 96 110 7,100  Climbing New York TRACON
02:49PM 40.7000 -73.7000 37° Northeast 102 117 7,100 -300 Level New York TRACON
02:50PM 40.7167 -73.6667 57° Northeast 100 115 6,600 -600 Descending New York TRACON
02:51PM 40.7500 -73.6500 21° North 105 121 6,000 -600 Descending New York TRACON
02:52PM 40.7667 -73.6167 57° Northeast 105 121 5,400 -540 Descending New York TRACON
02:53PM 40.7833 -73.6000 37° Northeast 106 122 5,000 -240 Descending New York TRACON
02:54PM 40.8000 -73.5667 57° Northeast 103 119 5,000 -180 Level New York TRACON
02:55PM 40.8333 -73.5500 21° North 108 124 4,700 -420 Descending New York TRACON
02:56PM 40.8500 -73.5167 57° Northeast 108 124 4,200 -420 Descending New York TRACON
02:57PM 40.8500 -73.4833 90° East 104 120 3,900 -420 Descending New York TRACON
02:58PM 40.8500 -73.4500 90° East 103 119 3,400 -480 Descending New York TRACON
02:59PM 40.8500 -73.4000 90° East 103 119 3,000 -240 Descending New York TRACON
03:00PM 40.8667 -73.3667 57° Northeast 95 109 3,000  Level New York TRACON